sensor_id;sensor_type;location;lat;lon;timestamp;P1;durP1;ratioP1;P2;durP2;ratioP2
11100;SDS011;5604;50.722;7.078;2022-10-15T00:01:27;919.03;;;859.20;;
11100;SDS011;5604;50.722;7.078;2022-10-15T00:03:55;925.17;;;864.97;;
11100;SDS011;5604;50.722;7.078;2022-10-15T00:06:24;927.80;;;867.13;;
11100;SDS011;5604;50.722;7.078;2022-10-15T00:08:52;929.33;;;868.17;;
11100;SDS011;5604;50.722;7.078;2022-10-15T00:11:22;926.27;;;865.93;;
11100;SDS011;5604;50.722;7.078;2022-10-15T00:13:52;919.90;;;859.97;;
11100;SDS011;5604;50.722;7.078;2022-10-15T00:16:22;920.80;;;860.73;;
11100;SDS011;5604;50.722;7.078;2022-10-15T00:18:54;932.77;;;871.63;;
11100;SDS011;5604;50.722;7.078;2022-10-15T00:21:22;923.17;;;862.63;;
11100;SDS011;5604;50.722;7.078;2022-10-15T00:23:50;922.37;;;862.53;;
11100;SDS011;5604;50.722;7.078;2022-10-15T00:26:19;915.40;;;856.20;;
11100;SDS011;5604;50.722;7.078;2022-10-15T00:28:50;923.30;;;863.10;;
11100;SDS011;5604;50.722;7.078;2022-10-15T00:31:21;920.53;;;861.17;;
11100;SDS011;5604;50.722;7.078;2022-10-15T00:33:52;922.60;;;862.33;;
11100;SDS011;5604;50.722;7.078;2022-10-15T00:36:22;907.77;;;849.03;;
11100;SDS011;5604;50.722;7.078;2022-10-15T00:38:51;922.93;;;862.87;;
11100;SDS011;5604;50.722;7.078;2022-10-15T00:41:20;937.10;;;875.53;;
11100;SDS011;5604;50.722;7.078;2022-10-15T00:43:52;926.03;;;865.53;;
11100;SDS011;5604;50.722;7.078;2022-10-15T00:46:22;923.97;;;863.63;;
11100;SDS011;5604;50.722;7.078;2022-10-15T00:48:53;927.87;;;867.00;;
11100;SDS011;5604;50.722;7.078;2022-10-15T00:51:23;930.33;;;869.33;;
11100;SDS011;5604;50.722;7.078;2022-10-15T00:53:57;934.77;;;873.27;;
11100;SDS011;5604;50.722;7.078;2022-10-15T00:56:27;927.67;;;866.57;;
11100;SDS011;5604;50.722;7.078;2022-10-15T00:58:58;924.87;;;864.70;;
11100;SDS011;5604;50.722;7.078;2022-10-15T01:01:27;919.90;;;859.60;;
11100;SDS011;5604;50.722;7.078;2022-10-15T01:03:56;921.80;;;861.63;;
11100;SDS011;5604;50.722;7.078;2022-10-15T01:06:24;913.23;;;854.07;;
11100;SDS011;5604;50.722;7.078;2022-10-15T01:08:53;912.67;;;853.53;;
11100;SDS011;5604;50.722;7.078;2022-10-15T01:11:25;916.10;;;856.50;;
11100;SDS011;5604;50.722;7.078;2022-10-15T01:14:05;906.07;;;847.93;;
11100;SDS011;5604;50.722;7.078;2022-10-15T01:16:39;907.53;;;849.13;;
11100;SDS011;5604;50.722;7.078;2022-10-15T01:19:14;905.23;;;847.23;;
11100;SDS011;5604;50.722;7.078;2022-10-15T01:21:55;902.03;;;844.43;;
11100;SDS011;5604;50.722;7.078;2022-10-15T01:27:32;912.20;;;853.23;;
11100;SDS011;5604;50.722;7.078;2022-10-15T01:30:15;914.20;;;855.17;;
11100;SDS011;5604;50.722;7.078;2022-10-15T01:35:50;914.43;;;855.13;;
11100;SDS011;5604;50.722;7.078;2022-10-15T01:38:22;922.33;;;862.13;;
11100;SDS011;5604;50.722;7.078;2022-10-15T01:40:56;926.33;;;865.47;;
11100;SDS011;5604;50.722;7.078;2022-10-15T01:43:29;916.53;;;857.07;;
11100;SDS011;5604;50.722;7.078;2022-10-15T01:46:34;916.40;;;856.60;;
11100;SDS011;5604;50.722;7.078;2022-10-15T01:49:08;925.13;;;864.93;;
11100;SDS011;5604;50.722;7.078;2022-10-15T01:51:38;923.93;;;862.97;;
11100;SDS011;5604;50.722;7.078;2022-10-15T01:54:07;930.23;;;868.40;;
11100;SDS011;5604;50.722;7.078;2022-10-15T01:56:39;908.17;;;850.13;;
11100;SDS011;5604;50.722;7.078;2022-10-15T01:59:08;901.57;;;844.50;;
11100;SDS011;5604;50.722;7.078;2022-10-15T02:01:42;879.20;;;824.00;;
11100;SDS011;5604;50.722;7.078;2022-10-15T02:04:16;887.73;;;831.80;;
11100;SDS011;5604;50.722;7.078;2022-10-15T02:06:47;892.43;;;836.00;;
11100;SDS011;5604;50.722;7.078;2022-10-15T02:09:20;906.37;;;848.33;;
11100;SDS011;5604;50.722;7.078;2022-10-15T02:11:58;883.23;;;827.33;;
11100;SDS011;5604;50.722;7.078;2022-10-15T02:14:32;884.80;;;829.40;;
11100;SDS011;5604;50.722;7.078;2022-10-15T02:17:04;893.00;;;836.03;;
11100;SDS011;5604;50.722;7.078;2022-10-15T02:19:36;904.37;;;846.30;;
11100;SDS011;5604;50.722;7.078;2022-10-15T02:22:11;891.60;;;835.13;;
11100;SDS011;5604;50.722;7.078;2022-10-15T02:24:44;878.30;;;823.23;;
11100;SDS011;5604;50.722;7.078;2022-10-15T02:27:21;868.10;;;814.53;;
11100;SDS011;5604;50.722;7.078;2022-10-15T02:29:50;872.63;;;818.87;;
11100;SDS011;5604;50.722;7.078;2022-10-15T02:32:20;856.87;;;804.87;;
11100;SDS011;5604;50.722;7.078;2022-10-15T02:34:49;856.97;;;804.30;;
11100;SDS011;5604;50.722;7.078;2022-10-15T02:37:19;851.00;;;799.57;;
11100;SDS011;5604;50.722;7.078;2022-10-15T02:39:49;858.07;;;806.50;;
11100;SDS011;5604;50.722;7.078;2022-10-15T02:42:17;853.97;;;802.27;;
11100;SDS011;5604;50.722;7.078;2022-10-15T02:44:47;840.83;;;790.97;;
11100;SDS011;5604;50.722;7.078;2022-10-15T02:47:15;833.30;;;784.33;;
11100;SDS011;5604;50.722;7.078;2022-10-15T02:49:44;833.30;;;784.10;;
11100;SDS011;5604;50.722;7.078;2022-10-15T02:52:13;826.60;;;777.73;;
11100;SDS011;5604;50.722;7.078;2022-10-15T02:54:41;832.90;;;783.90;;
11100;SDS011;5604;50.722;7.078;2022-10-15T02:57:09;834.70;;;785.33;;
11100;SDS011;5604;50.722;7.078;2022-10-15T02:59:40;826.07;;;777.53;;
11100;SDS011;5604;50.722;7.078;2022-10-15T03:02:08;817.97;;;769.93;;
11100;SDS011;5604;50.722;7.078;2022-10-15T03:04:46;812.10;;;765.13;;
11100;SDS011;5604;50.722;7.078;2022-10-15T03:07:14;823.87;;;775.53;;
11100;SDS011;5604;50.722;7.078;2022-10-15T03:09:42;823.30;;;774.73;;
11100;SDS011;5604;50.722;7.078;2022-10-15T03:12:11;813.77;;;766.20;;
11100;SDS011;5604;50.722;7.078;2022-10-15T03:14:40;831.90;;;782.73;;
11100;SDS011;5604;50.722;7.078;2022-10-15T03:17:09;828.53;;;779.43;;
11100;SDS011;5604;50.722;7.078;2022-10-15T03:19:38;826.93;;;778.07;;
11100;SDS011;5604;50.722;7.078;2022-10-15T03:22:07;839.70;;;789.67;;
11100;SDS011;5604;50.722;7.078;2022-10-15T03:24:45;842.40;;;792.27;;
11100;SDS011;5604;50.722;7.078;2022-10-15T03:27:17;844.20;;;793.13;;
11100;SDS011;5604;50.722;7.078;2022-10-15T03:29:46;847.40;;;796.33;;
11100;SDS011;5604;50.722;7.078;2022-10-15T03:32:14;854.90;;;803.33;;
11100;SDS011;5604;50.722;7.078;2022-10-15T03:34:42;839.63;;;789.30;;
11100;SDS011;5604;50.722;7.078;2022-10-15T03:37:14;841.87;;;791.90;;
11100;SDS011;5604;50.722;7.078;2022-10-15T03:39:42;831.07;;;781.87;;
11100;SDS011;5604;50.722;7.078;2022-10-15T03:42:11;832.30;;;782.83;;
11100;SDS011;5604;50.722;7.078;2022-10-15T03:44:43;832.43;;;782.90;;
11100;SDS011;5604;50.722;7.078;2022-10-15T03:47:15;843.80;;;793.13;;
11100;SDS011;5604;50.722;7.078;2022-10-15T03:49:47;842.93;;;792.30;;
11100;SDS011;5604;50.722;7.078;2022-10-15T03:52:17;848.23;;;797.40;;
11100;SDS011;5604;50.722;7.078;2022-10-15T03:54:46;850.07;;;799.20;;
11100;SDS011;5604;50.722;7.078;2022-10-15T03:57:17;852.40;;;800.97;;
11100;SDS011;5604;50.722;7.078;2022-10-15T03:59:51;844.47;;;793.73;;
11100;SDS011;5604;50.722;7.078;2022-10-15T04:02:22;851.03;;;800.17;;
11100;SDS011;5604;50.722;7.078;2022-10-15T04:04:51;841.20;;;790.97;;
11100;SDS011;5604;50.722;7.078;2022-10-15T04:07:21;836.27;;;786.37;;
11100;SDS011;5604;50.722;7.078;2022-10-15T04:09:50;832.10;;;783.47;;
11100;SDS011;5604;50.722;7.078;2022-10-15T04:12:25;825.87;;;777.30;;
11100;SDS011;5604;50.722;7.078;2022-10-15T04:14:54;813.10;;;766.20;;
11100;SDS011;5604;50.722;7.078;2022-10-15T04:17:22;809.10;;;762.23;;
11100;SDS011;5604;50.722;7.078;2022-10-15T04:19:50;804.27;;;757.90;;
11100;SDS011;5604;50.722;7.078;2022-10-15T04:22:22;817.03;;;769.70;;
11100;SDS011;5604;50.722;7.078;2022-10-15T04:24:55;824.23;;;776.13;;
11100;SDS011;5604;50.722;7.078;2022-10-15T04:27:28;813.40;;;766.33;;
11100;SDS011;5604;50.722;7.078;2022-10-15T04:30:09;818.40;;;770.20;;
11100;SDS011;5604;50.722;7.078;2022-10-15T04:32:44;791.67;;;746.17;;
11100;SDS011;5604;50.722;7.078;2022-10-15T04:35:12;817.30;;;769.67;;
11100;SDS011;5604;50.722;7.078;2022-10-15T04:37:58;806.83;;;760.00;;
11100;SDS011;5604;50.722;7.078;2022-10-15T04:40:37;812.00;;;764.97;;
11100;SDS011;5604;50.722;7.078;2022-10-15T04:43:06;807.60;;;760.80;;
11100;SDS011;5604;50.722;7.078;2022-10-15T04:45:34;823.87;;;775.13;;
11100;SDS011;5604;50.722;7.078;2022-10-15T04:48:03;835.47;;;785.53;;
11100;SDS011;5604;50.722;7.078;2022-10-15T04:50:31;824.40;;;775.87;;
11100;SDS011;5604;50.722;7.078;2022-10-15T04:53:21;827.03;;;778.70;;
11100;SDS011;5604;50.722;7.078;2022-10-15T04:55:51;820.27;;;771.90;;
11100;SDS011;5604;50.722;7.078;2022-10-15T04:58:19;838.57;;;788.83;;
11100;SDS011;5604;50.722;7.078;2022-10-15T05:00:48;837.07;;;787.70;;
11100;SDS011;5604;50.722;7.078;2022-10-15T05:03:31;825.83;;;777.40;;
11100;SDS011;5604;50.722;7.078;2022-10-15T05:06:04;801.67;;;755.53;;
11100;SDS011;5604;50.722;7.078;2022-10-15T05:08:36;811.30;;;764.40;;
11100;SDS011;5604;50.722;7.078;2022-10-15T05:11:15;804.07;;;758.07;;
11100;SDS011;5604;50.722;7.078;2022-10-15T05:13:44;810.77;;;763.70;;
11100;SDS011;5604;50.722;7.078;2022-10-15T05:16:13;814.30;;;767.13;;
11100;SDS011;5604;50.722;7.078;2022-10-15T05:18:44;826.73;;;778.20;;
11100;SDS011;5604;50.722;7.078;2022-10-15T05:21:13;824.97;;;776.37;;
11100;SDS011;5604;50.722;7.078;2022-10-15T05:23:44;813.00;;;765.67;;
11100;SDS011;5604;50.722;7.078;2022-10-15T05:26:33;791.20;;;745.63;;
11100;SDS011;5604;50.722;7.078;2022-10-15T05:29:01;803.87;;;757.37;;
11100;SDS011;5604;50.722;7.078;2022-10-15T05:31:30;817.93;;;770.13;;
11100;SDS011;5604;50.722;7.078;2022-10-15T05:34:10;819.07;;;771.17;;
11100;SDS011;5604;50.722;7.078;2022-10-15T05:36:52;792.57;;;747.17;;
11100;SDS011;5604;50.722;7.078;2022-10-15T05:39:21;804.17;;;757.63;;
11100;SDS011;5604;50.722;7.078;2022-10-15T05:41:52;805.83;;;758.93;;
11100;SDS011;5604;50.722;7.078;2022-10-15T05:44:30;805.30;;;758.57;;
11100;SDS011;5604;50.722;7.078;2022-10-15T05:46:58;827.00;;;778.90;;
11100;SDS011;5604;50.722;7.078;2022-10-15T05:49:26;808.57;;;761.23;;
11100;SDS011;5604;50.722;7.078;2022-10-15T05:52:05;813.63;;;766.17;;
11100;SDS011;5604;50.722;7.078;2022-10-15T05:54:57;790.77;;;745.10;;
11100;SDS011;5604;50.722;7.078;2022-10-15T05:57:25;807.03;;;760.70;;
11100;SDS011;5604;50.722;7.078;2022-10-15T05:59:54;793.57;;;748.50;;
11100;SDS011;5604;50.722;7.078;2022-10-15T06:02:22;798.83;;;752.93;;
11100;SDS011;5604;50.722;7.078;2022-10-15T06:04:50;793.03;;;747.53;;
11100;SDS011;5604;50.722;7.078;2022-10-15T06:07:19;783.33;;;738.77;;
11100;SDS011;5604;50.722;7.078;2022-10-15T06:09:47;778.53;;;734.77;;
11100;SDS011;5604;50.722;7.078;2022-10-15T06:12:17;792.10;;;746.70;;
11100;SDS011;5604;50.722;7.078;2022-10-15T06:14:45;787.57;;;742.77;;
11100;SDS011;5604;50.722;7.078;2022-10-15T06:17:13;773.23;;;729.97;;
11100;SDS011;5604;50.722;7.078;2022-10-15T06:19:47;743.73;;;702.63;;
11100;SDS011;5604;50.722;7.078;2022-10-15T06:22:15;771.93;;;728.43;;
11100;SDS011;5604;50.722;7.078;2022-10-15T06:24:43;768.13;;;724.97;;
11100;SDS011;5604;50.722;7.078;2022-10-15T06:27:11;767.17;;;724.23;;
11100;SDS011;5604;50.722;7.078;2022-10-15T06:29:41;779.20;;;735.17;;
11100;SDS011;5604;50.722;7.078;2022-10-15T06:32:09;769.17;;;725.90;;
11100;SDS011;5604;50.722;7.078;2022-10-15T06:34:41;780.73;;;736.60;;
11100;SDS011;5604;50.722;7.078;2022-10-15T06:37:09;785.63;;;741.23;;
11100;SDS011;5604;50.722;7.078;2022-10-15T06:39:38;808.97;;;761.73;;
11100;SDS011;5604;50.722;7.078;2022-10-15T06:42:06;805.47;;;758.70;;
11100;SDS011;5604;50.722;7.078;2022-10-15T06:44:37;800.93;;;754.63;;
11100;SDS011;5604;50.722;7.078;2022-10-15T06:47:07;821.07;;;773.07;;
11100;SDS011;5604;50.722;7.078;2022-10-15T06:49:35;831.17;;;782.27;;
11100;SDS011;5604;50.722;7.078;2022-10-15T06:52:03;838.43;;;788.47;;
11100;SDS011;5604;50.722;7.078;2022-10-15T06:54:31;870.03;;;816.10;;
11100;SDS011;5604;50.722;7.078;2022-10-15T06:56:59;906.97;;;848.43;;
11100;SDS011;5604;50.722;7.078;2022-10-15T06:59:28;911.03;;;851.97;;
11100;SDS011;5604;50.722;7.078;2022-10-15T07:01:56;921.47;;;860.80;;
11100;SDS011;5604;50.722;7.078;2022-10-15T07:04:26;906.93;;;848.27;;
11100;SDS011;5604;50.722;7.078;2022-10-15T07:06:54;911.83;;;852.27;;
11100;SDS011;5604;50.722;7.078;2022-10-15T07:09:22;904.70;;;846.00;;
11100;SDS011;5604;50.722;7.078;2022-10-15T07:11:52;860.20;;;808.03;;
11100;SDS011;5604;50.722;7.078;2022-10-15T07:14:51;821.73;;;774.37;;
11100;SDS011;5604;50.722;7.078;2022-10-15T07:17:19;815.20;;;768.37;;
11100;SDS011;5604;50.722;7.078;2022-10-15T07:19:49;815.23;;;767.87;;
11100;SDS011;5604;50.722;7.078;2022-10-15T07:22:17;816.90;;;769.60;;
11100;SDS011;5604;50.722;7.078;2022-10-15T07:24:45;802.33;;;756.30;;
11100;SDS011;5604;50.722;7.078;2022-10-15T07:27:13;793.37;;;748.27;;
11100;SDS011;5604;50.722;7.078;2022-10-15T07:29:44;769.13;;;726.60;;
11100;SDS011;5604;50.722;7.078;2022-10-15T07:32:12;763.03;;;720.60;;
11100;SDS011;5604;50.722;7.078;2022-10-15T07:34:40;747.23;;;706.17;;
11100;SDS011;5604;50.722;7.078;2022-10-15T07:37:10;750.17;;;709.20;;
11100;SDS011;5604;50.722;7.078;2022-10-15T07:39:38;727.27;;;688.60;;
11100;SDS011;5604;50.722;7.078;2022-10-15T07:42:07;715.40;;;677.13;;
11100;SDS011;5604;50.722;7.078;2022-10-15T07:44:35;706.73;;;668.97;;
11100;SDS011;5604;50.722;7.078;2022-10-15T07:47:08;719.30;;;680.60;;
11100;SDS011;5604;50.722;7.078;2022-10-15T07:49:36;719.80;;;681.40;;
11100;SDS011;5604;50.722;7.078;2022-10-15T07:52:05;688.03;;;652.30;;
11100;SDS011;5604;50.722;7.078;2022-10-15T07:54:35;712.10;;;674.60;;
11100;SDS011;5604;50.722;7.078;2022-10-15T07:57:04;720.10;;;681.97;;
11100;SDS011;5604;50.722;7.078;2022-10-15T07:59:33;708.53;;;670.83;;
11100;SDS011;5604;50.722;7.078;2022-10-15T08:02:02;734.97;;;695.23;;
11100;SDS011;5604;50.722;7.078;2022-10-15T08:04:30;712.27;;;674.17;;
11100;SDS011;5604;50.722;7.078;2022-10-15T08:07:02;695.70;;;658.63;;
11100;SDS011;5604;50.722;7.078;2022-10-15T08:09:41;676.60;;;641.53;;
11100;SDS011;5604;50.722;7.078;2022-10-15T08:12:10;668.80;;;634.73;;
11100;SDS011;5604;50.722;7.078;2022-10-15T08:14:41;672.87;;;638.50;;
11100;SDS011;5604;50.722;7.078;2022-10-15T08:17:09;640.07;;;608.43;;
11100;SDS011;5604;50.722;7.078;2022-10-15T08:19:37;615.23;;;585.33;;
11100;SDS011;5604;50.722;7.078;2022-10-15T08:22:08;627.33;;;596.57;;
11100;SDS011;5604;50.722;7.078;2022-10-15T08:24:41;632.97;;;601.70;;
11100;SDS011;5604;50.722;7.078;2022-10-15T08:27:09;617.93;;;587.80;;
11100;SDS011;5604;50.722;7.078;2022-10-15T08:29:37;624.67;;;594.43;;
11100;SDS011;5604;50.722;7.078;2022-10-15T08:32:09;591.20;;;563.53;;
11100;SDS011;5604;50.722;7.078;2022-10-15T08:34:39;598.93;;;570.63;;
11100;SDS011;5604;50.722;7.078;2022-10-15T08:37:07;597.07;;;568.83;;
11100;SDS011;5604;50.722;7.078;2022-10-15T08:39:41;603.33;;;574.93;;
11100;SDS011;5604;50.722;7.078;2022-10-15T08:42:13;602.03;;;573.53;;
11100;SDS011;5604;50.722;7.078;2022-10-15T08:44:45;617.13;;;587.10;;
11100;SDS011;5604;50.722;7.078;2022-10-15T08:47:21;596.27;;;568.33;;
11100;SDS011;5604;50.722;7.078;2022-10-15T08:49:55;611.47;;;582.23;;
11100;SDS011;5604;50.722;7.078;2022-10-15T08:52:33;654.57;;;621.90;;
11100;SDS011;5604;50.722;7.078;2022-10-15T08:55:09;683.87;;;648.60;;
11100;SDS011;5604;50.722;7.078;2022-10-15T08:57:40;696.10;;;660.53;;
11100;SDS011;5604;50.722;7.078;2022-10-15T09:00:12;713.33;;;675.90;;
11100;SDS011;5604;50.722;7.078;2022-10-15T09:02:44;758.30;;;717.27;;
11100;SDS011;5604;50.722;7.078;2022-10-15T09:05:26;770.07;;;727.57;;
11100;SDS011;5604;50.722;7.078;2022-10-15T09:07:58;797.17;;;751.97;;
11100;SDS011;5604;50.722;7.078;2022-10-15T09:10:33;799.43;;;754.10;;
11100;SDS011;5604;50.722;7.078;2022-10-15T09:13:06;808.53;;;762.70;;
11100;SDS011;5604;50.722;7.078;2022-10-15T09:15:45;811.63;;;765.03;;
11100;SDS011;5604;50.722;7.078;2022-10-15T09:18:16;826.37;;;777.97;;
11100;SDS011;5604;50.722;7.078;2022-10-15T09:20:47;826.23;;;778.90;;
11100;SDS011;5604;50.722;7.078;2022-10-15T09:23:16;834.20;;;785.37;;
11100;SDS011;5604;50.722;7.078;2022-10-15T09:25:48;839.47;;;790.30;;
11100;SDS011;5604;50.722;7.078;2022-10-15T09:28:23;845.70;;;795.97;;
11100;SDS011;5604;50.722;7.078;2022-10-15T09:30:54;821.90;;;774.27;;
11100;SDS011;5604;50.722;7.078;2022-10-15T09:33:32;839.77;;;790.73;;
11100;SDS011;5604;50.722;7.078;2022-10-15T09:36:07;844.90;;;795.17;;
11100;SDS011;5604;50.722;7.078;2022-10-15T09:38:42;833.53;;;784.53;;
11100;SDS011;5604;50.722;7.078;2022-10-15T09:41:18;840.97;;;791.40;;
11100;SDS011;5604;50.722;7.078;2022-10-15T09:43:51;837.47;;;787.73;;
11100;SDS011;5604;50.722;7.078;2022-10-15T09:46:27;836.67;;;787.70;;
11100;SDS011;5604;50.722;7.078;2022-10-15T09:48:57;847.03;;;796.93;;
11100;SDS011;5604;50.722;7.078;2022-10-15T09:51:33;831.37;;;783.37;;
11100;SDS011;5604;50.722;7.078;2022-10-15T09:54:03;823.77;;;776.60;;
11100;SDS011;5604;50.722;7.078;2022-10-15T09:56:38;833.63;;;785.33;;
11100;SDS011;5604;50.722;7.078;2022-10-15T09:59:13;830.33;;;781.90;;
11100;SDS011;5604;50.722;7.078;2022-10-15T10:01:56;821.93;;;775.03;;
11100;SDS011;5604;50.722;7.078;2022-10-15T10:04:43;831.17;;;783.20;;
11100;SDS011;5604;50.722;7.078;2022-10-15T10:07:26;839.83;;;790.60;;
11100;SDS011;5604;50.722;7.078;2022-10-15T10:09:57;821.17;;;773.60;;
11100;SDS011;5604;50.722;7.078;2022-10-15T10:12:29;808.17;;;762.73;;
11100;SDS011;5604;50.722;7.078;2022-10-15T10:15:00;789.03;;;744.93;;
11100;SDS011;5604;50.722;7.078;2022-10-15T10:17:30;763.40;;;721.67;;
11100;SDS011;5604;50.722;7.078;2022-10-15T10:20:04;742.57;;;702.90;;
11100;SDS011;5604;50.722;7.078;2022-10-15T10:22:41;746.73;;;706.63;;
11100;SDS011;5604;50.722;7.078;2022-10-15T10:25:28;767.53;;;725.47;;
11100;SDS011;5604;50.722;7.078;2022-10-15T10:28:03;712.33;;;675.10;;
11100;SDS011;5604;50.722;7.078;2022-10-15T10:30:34;712.00;;;674.73;;
11100;SDS011;5604;50.722;7.078;2022-10-15T10:33:04;690.33;;;655.03;;
11100;SDS011;5604;50.722;7.078;2022-10-15T10:35:34;679.27;;;645.23;;
11100;SDS011;5604;50.722;7.078;2022-10-15T10:38:03;688.13;;;652.90;;
11100;SDS011;5604;50.722;7.078;2022-10-15T10:40:33;645.20;;;613.43;;
11100;SDS011;5604;50.722;7.078;2022-10-15T10:43:22;664.97;;;631.80;;
11100;SDS011;5604;50.722;7.078;2022-10-15T10:45:52;643.77;;;612.00;;
11100;SDS011;5604;50.722;7.078;2022-10-15T10:48:22;611.90;;;582.67;;
11100;SDS011;5604;50.722;7.078;2022-10-15T10:51:06;601.93;;;573.63;;
11100;SDS011;5604;50.722;7.078;2022-10-15T10:53:48;628.83;;;598.80;;
11100;SDS011;5604;50.722;7.078;2022-10-15T10:56:20;622.27;;;592.33;;
11100;SDS011;5604;50.722;7.078;2022-10-15T10:58:56;636.57;;;605.53;;
11100;SDS011;5604;50.722;7.078;2022-10-15T11:01:25;542.43;;;517.77;;
11100;SDS011;5604;50.722;7.078;2022-10-15T11:03:54;518.57;;;495.90;;
11100;SDS011;5604;50.722;7.078;2022-10-15T11:06:24;493.50;;;472.20;;
11100;SDS011;5604;50.722;7.078;2022-10-15T11:09:09;469.90;;;450.20;;
11100;SDS011;5604;50.722;7.078;2022-10-15T11:11:57;481.77;;;460.87;;
11100;SDS011;5604;50.722;7.078;2022-10-15T11:14:37;470.07;;;450.13;;
11100;SDS011;5604;50.722;7.078;2022-10-15T11:17:12;477.17;;;457.20;;
11100;SDS011;5604;50.722;7.078;2022-10-15T11:19:46;496.07;;;474.63;;
11100;SDS011;5604;50.722;7.078;2022-10-15T11:22:44;478.47;;;458.20;;
11100;SDS011;5604;50.722;7.078;2022-10-15T11:25:32;489.37;;;468.70;;
11100;SDS011;5604;50.722;7.078;2022-10-15T11:28:10;492.90;;;471.87;;
11100;SDS011;5604;50.722;7.078;2022-10-15T11:30:50;535.17;;;511.43;;
11100;SDS011;5604;50.722;7.078;2022-10-15T11:33:29;522.10;;;498.87;;
11100;SDS011;5604;50.722;7.078;2022-10-15T11:36:09;519.63;;;496.83;;
11100;SDS011;5604;50.722;7.078;2022-10-15T11:38:48;524.60;;;501.70;;
11100;SDS011;5604;50.722;7.078;2022-10-15T11:41:22;513.70;;;491.13;;
11100;SDS011;5604;50.722;7.078;2022-10-15T11:46:52;596.37;;;568.70;;
11100;SDS011;5604;50.722;7.078;2022-10-15T11:49:28;598.43;;;570.40;;
11100;SDS011;5604;50.722;7.078;2022-10-15T11:52:06;625.93;;;595.83;;
11100;SDS011;5604;50.722;7.078;2022-10-15T11:54:44;606.00;;;577.63;;
11100;SDS011;5604;50.722;7.078;2022-10-15T11:57:15;586.70;;;559.53;;
11100;SDS011;5604;50.722;7.078;2022-10-15T11:59:46;580.40;;;553.63;;
11100;SDS011;5604;50.722;7.078;2022-10-15T12:02:20;570.73;;;544.47;;
11100;SDS011;5604;50.722;7.078;2022-10-15T12:04:52;558.50;;;533.13;;
11100;SDS011;5604;50.722;7.078;2022-10-15T12:07:23;600.70;;;572.60;;
11100;SDS011;5604;50.722;7.078;2022-10-15T12:09:54;608.23;;;579.27;;
11100;SDS011;5604;50.722;7.078;2022-10-15T12:12:29;614.73;;;585.57;;
11100;SDS011;5604;50.722;7.078;2022-10-15T12:15:06;593.27;;;565.37;;
11100;SDS011;5604;50.722;7.078;2022-10-15T12:17:44;598.53;;;570.73;;
11100;SDS011;5604;50.722;7.078;2022-10-15T12:20:15;609.73;;;580.93;;
11100;SDS011;5604;50.722;7.078;2022-10-15T12:22:55;599.90;;;571.77;;
11100;SDS011;5604;50.722;7.078;2022-10-15T12:25:44;611.13;;;582.37;;
11100;SDS011;5604;50.722;7.078;2022-10-15T12:28:16;594.97;;;567.23;;
11100;SDS011;5604;50.722;7.078;2022-10-15T12:30:53;616.47;;;587.33;;
11100;SDS011;5604;50.722;7.078;2022-10-15T12:33:25;568.73;;;542.87;;
11100;SDS011;5604;50.722;7.078;2022-10-15T12:35:59;605.10;;;576.63;;
11100;SDS011;5604;50.722;7.078;2022-10-15T12:38:29;586.43;;;559.50;;
11100;SDS011;5604;50.722;7.078;2022-10-15T12:41:02;591.97;;;564.63;;
11100;SDS011;5604;50.722;7.078;2022-10-15T12:43:32;565.47;;;539.83;;
11100;SDS011;5604;50.722;7.078;2022-10-15T12:46:03;566.27;;;540.60;;
11100;SDS011;5604;50.722;7.078;2022-10-15T12:48:35;589.33;;;561.70;;
11100;SDS011;5604;50.722;7.078;2022-10-15T12:54:00;592.93;;;565.47;;
11100;SDS011;5604;50.722;7.078;2022-10-15T12:56:35;587.27;;;560.20;;
11100;SDS011;5604;50.722;7.078;2022-10-15T13:02:00;570.90;;;544.83;;
11100;SDS011;5604;50.722;7.078;2022-10-15T13:04:36;572.57;;;546.30;;
11100;SDS011;5604;50.722;7.078;2022-10-15T13:07:05;546.70;;;522.50;;
11100;SDS011;5604;50.722;7.078;2022-10-15T13:09:33;594.87;;;567.17;;
11100;SDS011;5604;50.722;7.078;2022-10-15T13:12:02;552.50;;;527.80;;
11100;SDS011;5604;50.722;7.078;2022-10-15T13:14:31;557.67;;;532.37;;
11100;SDS011;5604;50.722;7.078;2022-10-15T13:17:02;566.80;;;541.23;;
11100;SDS011;5604;50.722;7.078;2022-10-15T13:19:33;546.53;;;522.40;;
11100;SDS011;5604;50.722;7.078;2022-10-15T13:22:06;586.70;;;559.57;;
11100;SDS011;5604;50.722;7.078;2022-10-15T13:24:46;571.47;;;545.53;;
11100;SDS011;5604;50.722;7.078;2022-10-15T13:27:15;578.90;;;552.23;;
11100;SDS011;5604;50.722;7.078;2022-10-15T13:29:53;542.47;;;518.37;;
11100;SDS011;5604;50.722;7.078;2022-10-15T13:32:22;552.93;;;528.13;;
11100;SDS011;5604;50.722;7.078;2022-10-15T13:34:53;548.43;;;523.97;;
11100;SDS011;5604;50.722;7.078;2022-10-15T13:37:25;560.60;;;535.20;;
11100;SDS011;5604;50.722;7.078;2022-10-15T13:39:57;570.43;;;544.40;;
11100;SDS011;5604;50.722;7.078;2022-10-15T13:42:32;570.03;;;544.03;;
11100;SDS011;5604;50.722;7.078;2022-10-15T13:45:01;556.43;;;531.47;;
11100;SDS011;5604;50.722;7.078;2022-10-15T13:47:31;563.40;;;538.00;;
11100;SDS011;5604;50.722;7.078;2022-10-15T13:50:17;580.23;;;553.67;;
11100;SDS011;5604;50.722;7.078;2022-10-15T13:52:48;564.50;;;538.93;;
11100;SDS011;5604;50.722;7.078;2022-10-15T13:55:19;595.97;;;568.30;;
11100;SDS011;5604;50.722;7.078;2022-10-15T13:57:49;577.20;;;550.53;;
11100;SDS011;5604;50.722;7.078;2022-10-15T14:00:26;567.53;;;541.90;;
11100;SDS011;5604;50.722;7.078;2022-10-15T14:05:52;558.67;;;533.70;;
11100;SDS011;5604;50.722;7.078;2022-10-15T14:08:22;548.80;;;524.27;;
11100;SDS011;5604;50.722;7.078;2022-10-15T14:10:52;562.87;;;537.60;;
11100;SDS011;5604;50.722;7.078;2022-10-15T14:13:21;574.97;;;548.83;;
11100;SDS011;5604;50.722;7.078;2022-10-15T14:16:00;566.30;;;540.63;;
11100;SDS011;5604;50.722;7.078;2022-10-15T14:18:39;554.83;;;530.10;;
11100;SDS011;5604;50.722;7.078;2022-10-15T14:21:16;561.07;;;535.73;;
11100;SDS011;5604;50.722;7.078;2022-10-15T14:23:46;604.23;;;575.70;;
11100;SDS011;5604;50.722;7.078;2022-10-15T14:26:15;605.33;;;577.00;;
11100;SDS011;5604;50.722;7.078;2022-10-15T14:28:50;583.97;;;557.30;;
11100;SDS011;5604;50.722;7.078;2022-10-15T14:31:25;575.83;;;549.80;;
11100;SDS011;5604;50.722;7.078;2022-10-15T14:33:57;559.70;;;534.67;;
11100;SDS011;5604;50.722;7.078;2022-10-15T14:36:27;573.17;;;547.13;;
11100;SDS011;5604;50.722;7.078;2022-10-15T14:41:56;549.33;;;525.13;;
11100;SDS011;5604;50.722;7.078;2022-10-15T14:44:38;527.60;;;504.73;;
11100;SDS011;5604;50.722;7.078;2022-10-15T14:47:14;533.50;;;510.17;;
11100;SDS011;5604;50.722;7.078;2022-10-15T14:49:46;530.77;;;507.73;;
11100;SDS011;5604;50.722;7.078;2022-10-15T14:52:16;538.43;;;514.73;;
11100;SDS011;5604;50.722;7.078;2022-10-15T14:54:47;529.67;;;506.43;;
11100;SDS011;5604;50.722;7.078;2022-10-15T14:57:26;528.57;;;505.60;;
11100;SDS011;5604;50.722;7.078;2022-10-15T14:59:57;535.30;;;511.73;;